sensor_id;sensor_type;location;lat;lon;timestamp;temperature;humidity
80695;DHT22;70059;42.702;23.312;2024-03-08T00:02:23;9.40;64.70
80695;DHT22;70059;42.702;23.312;2024-03-08T00:04:49;9.50;63.90
80695;DHT22;70059;42.702;23.312;2024-03-08T00:07:14;9.40;64.50
80695;DHT22;70059;42.702;23.312;2024-03-08T00:09:40;9.50;64.10
80695;DHT22;70059;42.702;23.312;2024-03-08T00:12:06;9.40;64.00
80695;DHT22;70059;42.702;23.312;2024-03-08T00:14:32;9.40;65.00
80695;DHT22;70059;42.702;23.312;2024-03-08T00:16:58;9.40;64.50
80695;DHT22;70059;42.702;23.312;2024-03-08T00:19:24;9.40;64.60
80695;DHT22;70059;42.702;23.312;2024-03-08T00:21:50;9.20;64.90
80695;DHT22;70059;42.702;23.312;2024-03-08T00:24:15;9.30;64.20
80695;DHT22;70059;42.702;23.312;2024-03-08T00:26:41;9.30;64.10
80695;DHT22;70059;42.702;23.312;2024-03-08T00:29:07;9.30;64.20
80695;DHT22;70059;42.702;23.312;2024-03-08T00:31:33;9.30;63.80
80695;DHT22;70059;42.702;23.312;2024-03-08T00:33:59;9.10;65.80
80695;DHT22;70059;42.702;23.312;2024-03-08T00:36:25;9.00;66.20
80695;DHT22;70059;42.702;23.312;2024-03-08T00:38:50;8.90;67.30
80695;DHT22;70059;42.702;23.312;2024-03-08T00:41:16;8.90;67.40
80695;DHT22;70059;42.702;23.312;2024-03-08T00:43:42;9.00;67.40
80695;DHT22;70059;42.702;23.312;2024-03-08T00:46:07;8.90;67.90
80695;DHT22;70059;42.702;23.312;2024-03-08T00:48:33;8.90;67.90
80695;DHT22;70059;42.702;23.312;2024-03-08T00:50:59;9.00;66.60
80695;DHT22;70059;42.702;23.312;2024-03-08T00:53:24;8.90;66.30
80695;DHT22;70059;42.702;23.312;2024-03-08T00:55:50;8.90;66.90
80695;DHT22;70059;42.702;23.312;2024-03-08T00:58:15;8.90;67.10
80695;DHT22;70059;42.702;23.312;2024-03-08T01:00:41;8.80;67.90
80695;DHT22;70059;42.702;23.312;2024-03-08T01:03:07;8.80;67.90
80695;DHT22;70059;42.702;23.312;2024-03-08T01:05:33;8.90;67.80
80695;DHT22;70059;42.702;23.312;2024-03-08T01:08:00;8.80;67.30
80695;DHT22;70059;42.702;23.312;2024-03-08T01:10:28;8.70;67.30
80695;DHT22;70059;42.702;23.312;2024-03-08T01:12:54;8.70;67.80
80695;DHT22;70059;42.702;23.312;2024-03-08T01:15:22;8.70;67.60
80695;DHT22;70059;42.702;23.312;2024-03-08T01:17:48;8.60;68.20
80695;DHT22;70059;42.702;23.312;2024-03-08T01:20:13;8.50;69.30
80695;DHT22;70059;42.702;23.312;2024-03-08T01:22:40;8.50;69.30
80695;DHT22;70059;42.702;23.312;2024-03-08T01:25:06;8.50;69.60
80695;DHT22;70059;42.702;23.312;2024-03-08T01:27:32;8.50;69.40
80695;DHT22;70059;42.702;23.312;2024-03-08T01:29:58;8.60;70.50
80695;DHT22;70059;42.702;23.312;2024-03-08T01:32:25;8.60;68.70
80695;DHT22;70059;42.702;23.312;2024-03-08T01:34:50;8.70;68.80
80695;DHT22;70059;42.702;23.312;2024-03-08T01:37:16;8.90;69.20
80695;DHT22;70059;42.702;23.312;2024-03-08T01:39:42;9.00;66.70
80695;DHT22;70059;42.702;23.312;2024-03-08T01:42:07;9.10;66.40
80695;DHT22;70059;42.702;23.312;2024-03-08T01:44:33;9.10;66.10
80695;DHT22;70059;42.702;23.312;2024-03-08T01:46:59;9.10;64.50
80695;DHT22;70059;42.702;23.312;2024-03-08T01:49:26;9.10;65.60
80695;DHT22;70059;42.702;23.312;2024-03-08T01:51:53;9.00;66.30
80695;DHT22;70059;42.702;23.312;2024-03-08T01:54:22;9.00;67.30
80695;DHT22;70059;42.702;23.312;2024-03-08T01:56:49;9.00;67.20
80695;DHT22;70059;42.702;23.312;2024-03-08T01:59:15;9.00;66.40
80695;DHT22;70059;42.702;23.312;2024-03-08T02:01:42;9.10;67.20
80695;DHT22;70059;42.702;23.312;2024-03-08T02:04:09;9.20;66.30
80695;DHT22;70059;42.702;23.312;2024-03-08T02:06:34;9.30;65.90
80695;DHT22;70059;42.702;23.312;2024-03-08T02:09:00;9.40;64.70
80695;DHT22;70059;42.702;23.312;2024-03-08T02:11:26;9.30;64.40
80695;DHT22;70059;42.702;23.312;2024-03-08T02:13:52;9.20;64.60
80695;DHT22;70059;42.702;23.312;2024-03-08T02:16:21;9.20;64.60
80695;DHT22;70059;42.702;23.312;2024-03-08T02:18:48;9.10;65.00
80695;DHT22;70059;42.702;23.312;2024-03-08T02:21:17;9.20;65.00
80695;DHT22;70059;42.702;23.312;2024-03-08T02:23:46;9.10;65.40
80695;DHT22;70059;42.702;23.312;2024-03-08T02:26:12;9.10;64.50
80695;DHT22;70059;42.702;23.312;2024-03-08T02:28:38;9.00;64.50
80695;DHT22;70059;42.702;23.312;2024-03-08T02:31:04;9.00;63.70
80695;DHT22;70059;42.702;23.312;2024-03-08T02:33:33;9.00;63.20
80695;DHT22;70059;42.702;23.312;2024-03-08T02:35:59;9.10;62.80
80695;DHT22;70059;42.702;23.312;2024-03-08T02:38:25;9.10;61.70
80695;DHT22;70059;42.702;23.312;2024-03-08T02:40:52;9.10;60.10
80695;DHT22;70059;42.702;23.312;2024-03-08T02:43:19;8.90;61.40
80695;DHT22;70059;42.702;23.312;2024-03-08T02:45:45;8.80;61.60
80695;DHT22;70059;42.702;23.312;2024-03-08T02:48:12;8.70;63.50
80695;DHT22;70059;42.702;23.312;2024-03-08T02:50:37;8.80;63.40
80695;DHT22;70059;42.702;23.312;2024-03-08T02:53:06;8.80;63.00
80695;DHT22;70059;42.702;23.312;2024-03-08T02:55:32;8.90;61.80
80695;DHT22;70059;42.702;23.312;2024-03-08T02:58:00;8.90;61.40
80695;DHT22;70059;42.702;23.312;2024-03-08T03:00:25;8.80;60.80
80695;DHT22;70059;42.702;23.312;2024-03-08T03:02:52;8.80;62.00
80695;DHT22;70059;42.702;23.312;2024-03-08T03:05:21;9.00;61.50
80695;DHT22;70059;42.702;23.312;2024-03-08T03:07:46;8.90;62.50
80695;DHT22;70059;42.702;23.312;2024-03-08T03:10:14;9.00;62.00
80695;DHT22;70059;42.702;23.312;2024-03-08T03:12:43;9.00;61.50
80695;DHT22;70059;42.702;23.312;2024-03-08T03:15:11;8.90;60.20
80695;DHT22;70059;42.702;23.312;2024-03-08T03:17:37;8.80;61.30
80695;DHT22;70059;42.702;23.312;2024-03-08T03:20:08;8.80;61.20
80695;DHT22;70059;42.702;23.312;2024-03-08T03:22:39;8.70;61.90
80695;DHT22;70059;42.702;23.312;2024-03-08T03:25:07;8.80;60.00
80695;DHT22;70059;42.702;23.312;2024-03-08T03:27:33;8.70;60.10
80695;DHT22;70059;42.702;23.312;2024-03-08T03:29:59;8.60;60.10
80695;DHT22;70059;42.702;23.312;2024-03-08T03:32:44;8.50;59.80
80695;DHT22;70059;42.702;23.312;2024-03-08T03:35:13;8.60;59.50
80695;DHT22;70059;42.702;23.312;2024-03-08T03:37:40;8.60;58.50
80695;DHT22;70059;42.702;23.312;2024-03-08T03:40:08;8.50;59.60
80695;DHT22;70059;42.702;23.312;2024-03-08T03:42:34;8.40;60.20
80695;DHT22;70059;42.702;23.312;2024-03-08T03:45:08;8.40;60.00
80695;DHT22;70059;42.702;23.312;2024-03-08T03:47:35;8.40;60.70
80695;DHT22;70059;42.702;23.312;2024-03-08T03:50:00;8.50;60.20
80695;DHT22;70059;42.702;23.312;2024-03-08T03:52:28;8.50;59.80
80695;DHT22;70059;42.702;23.312;2024-03-08T03:54:53;8.50;59.60
80695;DHT22;70059;42.702;23.312;2024-03-08T03:57:19;8.50;60.00
80695;DHT22;70059;42.702;23.312;2024-03-08T03:59:45;8.40;60.20
80695;DHT22;70059;42.702;23.312;2024-03-08T04:02:13;8.50;60.40
80695;DHT22;70059;42.702;23.312;2024-03-08T04:04:38;8.50;60.80
80695;DHT22;70059;42.702;23.312;2024-03-08T04:07:04;8.60;60.60
80695;DHT22;70059;42.702;23.312;2024-03-08T04:09:30;12.30;69.10
80695;DHT22;70059;42.702;23.312;2024-03-08T04:11:56;12.70;48.40
80695;DHT22;70059;42.702;23.312;2024-03-08T04:14:22;12.30;47.60
80695;DHT22;70059;42.702;23.312;2024-03-08T04:16:48;11.40;48.60
80695;DHT22;70059;42.702;23.312;2024-03-08T04:19:14;10.50;52.00
80695;DHT22;70059;42.702;23.312;2024-03-08T04:21:41;9.70;55.10
80695;DHT22;70059;42.702;23.312;2024-03-08T04:24:07;9.00;58.40
80695;DHT22;70059;42.702;23.312;2024-03-08T04:26:34;8.50;59.60
80695;DHT22;70059;42.702;23.312;2024-03-08T04:29:03;8.10;61.40
80695;DHT22;70059;42.702;23.312;2024-03-08T04:31:29;7.90;62.10
80695;DHT22;70059;42.702;23.312;2024-03-08T04:33:56;7.80;62.60
80695;DHT22;70059;42.702;23.312;2024-03-08T04:36:22;7.70;63.80
80695;DHT22;70059;42.702;23.312;2024-03-08T04:38:48;7.50;63.90
80695;DHT22;70059;42.702;23.312;2024-03-08T04:41:14;7.40;64.90
80695;DHT22;70059;42.702;23.312;2024-03-08T04:43:40;7.30;65.70
80695;DHT22;70059;42.702;23.312;2024-03-08T04:46:06;7.20;66.80
80695;DHT22;70059;42.702;23.312;2024-03-08T04:48:31;7.20;66.00
80695;DHT22;70059;42.702;23.312;2024-03-08T04:50:57;7.10;67.70
80695;DHT22;70059;42.702;23.312;2024-03-08T04:53:23;7.10;67.80
80695;DHT22;70059;42.702;23.312;2024-03-08T04:55:49;7.00;67.40
80695;DHT22;70059;42.702;23.312;2024-03-08T04:58:14;7.00;67.80
80695;DHT22;70059;42.702;23.312;2024-03-08T05:00:40;7.00;69.00
80695;DHT22;70059;42.702;23.312;2024-03-08T05:03:06;6.90;68.00
80695;DHT22;70059;42.702;23.312;2024-03-08T05:05:32;7.00;68.30
80695;DHT22;70059;42.702;23.312;2024-03-08T05:07:58;6.90;69.00
80695;DHT22;70059;42.702;23.312;2024-03-08T05:10:24;6.90;69.10
80695;DHT22;70059;42.702;23.312;2024-03-08T05:12:51;6.90;69.20
80695;DHT22;70059;42.702;23.312;2024-03-08T05:15:18;7.10;68.60
80695;DHT22;70059;42.702;23.312;2024-03-08T05:17:47;7.10;68.40
80695;DHT22;70059;42.702;23.312;2024-03-08T05:20:13;7.10;68.80
80695;DHT22;70059;42.702;23.312;2024-03-08T05:22:41;7.10;68.80
80695;DHT22;70059;42.702;23.312;2024-03-08T05:25:09;7.10;68.70
80695;DHT22;70059;42.702;23.312;2024-03-08T05:27:48;7.20;69.40
80695;DHT22;70059;42.702;23.312;2024-03-08T05:30:26;7.20;69.50
80695;DHT22;70059;42.702;23.312;2024-03-08T05:33:47;7.20;68.30
80695;DHT22;70059;42.702;23.312;2024-03-08T05:36:04;7.30;67.10
80695;DHT22;70059;42.702;23.312;2024-03-08T05:38:31;7.20;66.70
80695;DHT22;70059;42.702;23.312;2024-03-08T05:41:01;7.20;67.10
80695;DHT22;70059;42.702;23.312;2024-03-08T05:43:26;7.10;67.80
80695;DHT22;70059;42.702;23.312;2024-03-08T05:45:53;7.20;67.30
80695;DHT22;70059;42.702;23.312;2024-03-08T05:48:19;7.20;67.40
80695;DHT22;70059;42.702;23.312;2024-03-08T05:50:48;7.30;66.80
80695;DHT22;70059;42.702;23.312;2024-03-08T05:53:48;7.30;66.70
80695;DHT22;70059;42.702;23.312;2024-03-08T05:56:38;7.50;66.10
80695;DHT22;70059;42.702;23.312;2024-03-08T05:59:28;7.60;66.00
80695;DHT22;70059;42.702;23.312;2024-03-08T06:01:59;7.60;65.90
80695;DHT22;70059;42.702;23.312;2024-03-08T06:04:31;7.60;65.90
80695;DHT22;70059;42.702;23.312;2024-03-08T06:07:11;7.70;65.20
80695;DHT22;70059;42.702;23.312;2024-03-08T06:09:40;7.70;65.00
80695;DHT22;70059;42.702;23.312;2024-03-08T06:12:57;7.70;65.00
80695;DHT22;70059;42.702;23.312;2024-03-08T06:16:17;7.80;64.90
80695;DHT22;70059;42.702;23.312;2024-03-08T06:22:12;8.00;64.50
80695;DHT22;70059;42.702;23.312;2024-03-08T06:25:38;8.10;62.40
80695;DHT22;70059;42.702;23.312;2024-03-08T06:31:15;8.20;62.30
80695;DHT22;70059;42.702;23.312;2024-03-08T06:34:06;8.30;61.40
80695;DHT22;70059;42.702;23.312;2024-03-08T06:39:37;8.50;60.60
80695;DHT22;70059;42.702;23.312;2024-03-08T06:43:02;8.50;61.20
80695;DHT22;70059;42.702;23.312;2024-03-08T07:01:16;8.90;59.20
80695;DHT22;70059;42.702;23.312;2024-03-08T07:04:12;8.90;59.40
80695;DHT22;70059;42.702;23.312;2024-03-08T07:07:00;9.10;58.50
80695;DHT22;70059;42.702;23.312;2024-03-08T07:13:07;9.40;57.60
80695;DHT22;70059;42.702;23.312;2024-03-08T07:15:38;9.50;57.20
80695;DHT22;70059;42.702;23.312;2024-03-08T07:18:05;9.50;56.50
80695;DHT22;70059;42.702;23.312;2024-03-08T07:20:32;9.60;56.50
80695;DHT22;70059;42.702;23.312;2024-03-08T07:22:58;9.70;56.00
80695;DHT22;70059;42.702;23.312;2024-03-08T07:25:26;9.70;56.20
80695;DHT22;70059;42.702;23.312;2024-03-08T07:28:03;9.70;56.60
80695;DHT22;70059;42.702;23.312;2024-03-08T07:30:39;9.80;56.80
80695;DHT22;70059;42.702;23.312;2024-03-08T07:33:08;9.90;56.80
80695;DHT22;70059;42.702;23.312;2024-03-08T07:35:42;10.00;56.80
80695;DHT22;70059;42.702;23.312;2024-03-08T07:38:10;10.10;55.80
80695;DHT22;70059;42.702;23.312;2024-03-08T07:40:47;10.10;54.80
80695;DHT22;70059;42.702;23.312;2024-03-08T07:43:23;10.10;55.40
80695;DHT22;70059;42.702;23.312;2024-03-08T07:45:49;10.10;56.00
80695;DHT22;70059;42.702;23.312;2024-03-08T07:48:17;10.10;55.80
80695;DHT22;70059;42.702;23.312;2024-03-08T07:50:43;10.20;55.10
80695;DHT22;70059;42.702;23.312;2024-03-08T07:53:21;10.30;55.40
80695;DHT22;70059;42.702;23.312;2024-03-08T07:59:21;10.70;53.70
80695;DHT22;70059;42.702;23.312;2024-03-08T08:01:56;10.90;53.00
80695;DHT22;70059;42.702;23.312;2024-03-08T08:04:34;10.90;53.30
80695;DHT22;70059;42.702;23.312;2024-03-08T08:07:07;10.90;53.50
80695;DHT22;70059;42.702;23.312;2024-03-08T08:09:33;10.90;53.70
80695;DHT22;70059;42.702;23.312;2024-03-08T08:12:03;11.00;53.10
80695;DHT22;70059;42.702;23.312;2024-03-08T08:14:38;11.20;52.80
80695;DHT22;70059;42.702;23.312;2024-03-08T08:17:07;11.50;51.60
80695;DHT22;70059;42.702;23.312;2024-03-08T08:19:34;11.80;50.10
80695;DHT22;70059;42.702;23.312;2024-03-08T08:22:01;12.10;49.40
80695;DHT22;70059;42.702;23.312;2024-03-08T08:24:43;12.50;47.80
80695;DHT22;70059;42.702;23.312;2024-03-08T08:31:08;14.00;44.30
80695;DHT22;70059;42.702;23.312;2024-03-08T08:35:10;14.90;42.00
80695;DHT22;70059;42.702;23.312;2024-03-08T08:37:38;15.70;37.90
80695;DHT22;70059;42.702;23.312;2024-03-08T08:43:09;16.90;35.60
80695;DHT22;70059;42.702;23.312;2024-03-08T08:45:37;17.60;33.50
80695;DHT22;70059;42.702;23.312;2024-03-08T08:48:14;18.30;31.60
80695;DHT22;70059;42.702;23.312;2024-03-08T08:50:50;18.60;30.80
80695;DHT22;70059;42.702;23.312;2024-03-08T08:53:20;19.00;30.30
80695;DHT22;70059;42.702;23.312;2024-03-08T08:56:19;18.90;29.60
80695;DHT22;70059;42.702;23.312;2024-03-08T08:59:01;18.80;30.60
80695;DHT22;70059;42.702;23.312;2024-03-08T09:01:48;18.40;31.60
80695;DHT22;70059;42.702;23.312;2024-03-08T09:04:26;18.10;31.50
80695;DHT22;70059;42.702;23.312;2024-03-08T09:06:54;18.90;30.00
80695;DHT22;70059;42.702;23.312;2024-03-08T09:09:20;21.10;26.90
80695;DHT22;70059;42.702;23.312;2024-03-08T09:11:47;23.20;24.50
80695;DHT22;70059;42.702;23.312;2024-03-08T09:14:14;24.70;22.50
80695;DHT22;70059;42.702;23.312;2024-03-08T09:16:40;26.20;19.70
80695;DHT22;70059;42.702;23.312;2024-03-08T09:19:06;27.50;18.60
80695;DHT22;70059;42.702;23.312;2024-03-08T09:21:38;27.50;18.50
80695;DHT22;70059;42.702;23.312;2024-03-08T09:24:06;27.80;17.70
80695;DHT22;70059;42.702;23.312;2024-03-08T09:26:32;27.80;17.20
80695;DHT22;70059;42.702;23.312;2024-03-08T09:28:59;27.60;17.20
80695;DHT22;70059;42.702;23.312;2024-03-08T09:31:25;28.60;17.00
80695;DHT22;70059;42.702;23.312;2024-03-08T09:33:51;29.10;15.90
80695;DHT22;70059;42.702;23.312;2024-03-08T09:36:17;28.70;16.50
80695;DHT22;70059;42.702;23.312;2024-03-08T09:38:46;28.30;16.80
80695;DHT22;70059;42.702;23.312;2024-03-08T09:41:13;28.50;17.00
80695;DHT22;70059;42.702;23.312;2024-03-08T09:44:04;28.40;16.40
80695;DHT22;70059;42.702;23.312;2024-03-08T09:46:50;27.40;17.60
80695;DHT22;70059;42.702;23.312;2024-03-08T09:49:27;25.80;19.30
80695;DHT22;70059;42.702;23.312;2024-03-08T09:51:52;24.00;21.10
80695;DHT22;70059;42.702;23.312;2024-03-08T09:54:19;22.90;22.10
80695;DHT22;70059;42.702;23.312;2024-03-08T09:56:48;23.10;22.80
80695;DHT22;70059;42.702;23.312;2024-03-08T09:59:24;24.70;20.70
80695;DHT22;70059;42.702;23.312;2024-03-08T10:02:14;25.70;19.40
80695;DHT22;70059;42.702;23.312;2024-03-08T10:04:42;25.60;19.90
80695;DHT22;70059;42.702;23.312;2024-03-08T10:07:10;24.60;20.80
80695;DHT22;70059;42.702;23.312;2024-03-08T10:09:41;23.30;22.40
80695;DHT22;70059;42.702;23.312;2024-03-08T10:12:13;22.60;23.10
80695;DHT22;70059;42.702;23.312;2024-03-08T10:14:39;21.80;24.00
80695;DHT22;70059;42.702;23.312;2024-03-08T10:17:19;21.20;24.60
80695;DHT22;70059;42.702;23.312;2024-03-08T10:20:04;22.20;24.60
80695;DHT22;70059;42.702;23.312;2024-03-08T10:22:49;24.20;21.50
80695;DHT22;70059;42.702;23.312;2024-03-08T10:25:45;25.10;19.50
80695;DHT22;70059;42.702;23.312;2024-03-08T10:28:25;25.40;18.80
80695;DHT22;70059;42.702;23.312;2024-03-08T10:30:51;24.90;19.40
80695;DHT22;70059;42.702;23.312;2024-03-08T10:33:22;26.00;19.10
80695;DHT22;70059;42.702;23.312;2024-03-08T10:35:51;27.80;17.00
80695;DHT22;70059;42.702;23.312;2024-03-08T10:38:26;28.70;15.70
80695;DHT22;70059;42.702;23.312;2024-03-08T10:41:03;28.10;16.20
80695;DHT22;70059;42.702;23.312;2024-03-08T10:47:07;25.40;18.50
80695;DHT22;70059;42.702;23.312;2024-03-08T10:50:19;24.40;19.90
80695;DHT22;70059;42.702;23.312;2024-03-08T10:52:51;24.20;19.70
80695;DHT22;70059;42.702;23.312;2024-03-08T10:55:20;24.30;19.80
80695;DHT22;70059;42.702;23.312;2024-03-08T10:57:49;24.40;20.10
80695;DHT22;70059;42.702;23.312;2024-03-08T11:05:40;21.80;22.90
80695;DHT22;70059;42.702;23.312;2024-03-08T11:08:19;20.70;24.80
80695;DHT22;70059;42.702;23.312;2024-03-08T11:10:49;20.20;26.10
80695;DHT22;70059;42.702;23.312;2024-03-08T11:13:35;19.40;27.00
80695;DHT22;70059;42.702;23.312;2024-03-08T11:24:13;17.90;29.70
80695;DHT22;70059;42.702;23.312;2024-03-08T11:26:45;18.00;28.60
80695;DHT22;70059;42.702;23.312;2024-03-08T11:29:36;17.90;29.00
80695;DHT22;70059;42.702;23.312;2024-03-08T11:35:21;18.20;28.90
80695;DHT22;70059;42.702;23.312;2024-03-08T11:37:48;20.30;26.00
80695;DHT22;70059;42.702;23.312;2024-03-08T11:40:19;22.10;23.60
80695;DHT22;70059;42.702;23.312;2024-03-08T11:42:49;23.80;21.80
80695;DHT22;70059;42.702;23.312;2024-03-08T11:45:17;25.90;19.30
80695;DHT22;70059;42.702;23.312;2024-03-08T11:47:44;27.20;17.50
80695;DHT22;70059;42.702;23.312;2024-03-08T11:50:14;28.60;16.60
80695;DHT22;70059;42.702;23.312;2024-03-08T11:52:43;28.60;16.00
80695;DHT22;70059;42.702;23.312;2024-03-08T11:55:09;27.70;16.40
80695;DHT22;70059;42.702;23.312;2024-03-08T11:57:39;26.50;17.50
80695;DHT22;70059;42.702;23.312;2024-03-08T12:00:05;25.20;19.10
80695;DHT22;70059;42.702;23.312;2024-03-08T12:02:34;24.10;20.30
80695;DHT22;70059;42.702;23.312;2024-03-08T12:05:07;23.00;21.80
80695;DHT22;70059;42.702;23.312;2024-03-08T12:07:34;24.00;21.10
80695;DHT22;70059;42.702;23.312;2024-03-08T12:10:28;25.10;19.00
80695;DHT22;70059;42.702;23.312;2024-03-08T12:16:39;28.30;16.50
80695;DHT22;70059;42.702;23.312;2024-03-08T12:19:19;30.30;15.10
80695;DHT22;70059;42.702;23.312;2024-03-08T12:21:45;31.20;13.60
80695;DHT22;70059;42.702;23.312;2024-03-08T12:24:23;30.80;13.30
80695;DHT22;70059;42.702;23.312;2024-03-08T12:26:56;29.40;14.70
80695;DHT22;70059;42.702;23.312;2024-03-08T12:29:29;28.00;16.00
80695;DHT22;70059;42.702;23.312;2024-03-08T12:31:59;26.50;17.20
80695;DHT22;70059;42.702;23.312;2024-03-08T12:34:33;24.40;19.50
80695;DHT22;70059;42.702;23.312;2024-03-08T12:36:59;23.80;20.90
80695;DHT22;70059;42.702;23.312;2024-03-08T12:39:25;24.40;20.60
80695;DHT22;70059;42.702;23.312;2024-03-08T12:41:53;25.40;19.60
80695;DHT22;70059;42.702;23.312;2024-03-08T12:44:20;26.50;18.70
80695;DHT22;70059;42.702;23.312;2024-03-08T12:46:54;27.30;17.10
80695;DHT22;70059;42.702;23.312;2024-03-08T12:49:29;27.70;16.80
80695;DHT22;70059;42.702;23.312;2024-03-08T12:51:56;28.20;16.70
80695;DHT22;70059;42.702;23.312;2024-03-08T12:54:24;28.60;16.10
80695;DHT22;70059;42.702;23.312;2024-03-08T12:56:53;29.10;15.40
80695;DHT22;70059;42.702;23.312;2024-03-08T12:59:19;29.20;14.90
80695;DHT22;70059;42.702;23.312;2024-03-08T13:01:50;29.60;15.70
80695;DHT22;70059;42.702;23.312;2024-03-08T13:04:32;29.60;15.30
80695;DHT22;70059;42.702;23.312;2024-03-08T13:06:58;30.00;14.90
80695;DHT22;70059;42.702;23.312;2024-03-08T13:09:25;30.10;13.90
80695;DHT22;70059;42.702;23.312;2024-03-08T13:11:55;30.10;14.50
80695;DHT22;70059;42.702;23.312;2024-03-08T13:14:24;30.30;13.90
80695;DHT22;70059;42.702;23.312;2024-03-08T13:16:53;30.40;14.40
80695;DHT22;70059;42.702;23.312;2024-03-08T13:19:34;30.60;13.60
80695;DHT22;70059;42.702;23.312;2024-03-08T13:21:59;30.30;13.30
80695;DHT22;70059;42.702;23.312;2024-03-08T13:24:30;29.60;14.30
80695;DHT22;70059;42.702;23.312;2024-03-08T13:26:57;28.60;15.40
80695;DHT22;70059;42.702;23.312;2024-03-08T13:29:26;27.30;16.30
80695;DHT22;70059;42.702;23.312;2024-03-08T13:31:52;26.60;17.10
80695;DHT22;70059;42.702;23.312;2024-03-08T13:34:21;26.20;17.40
80695;DHT22;70059;42.702;23.312;2024-03-08T13:37:15;26.00;17.60
80695;DHT22;70059;42.702;23.312;2024-03-08T13:39:43;25.60;17.90
80695;DHT22;70059;42.702;23.312;2024-03-08T13:42:11;24.90;18.50
80695;DHT22;70059;42.702;23.312;2024-03-08T13:47:12;23.30;20.40
80695;DHT22;70059;42.702;23.312;2024-03-08T13:49:41;22.50;21.20
80695;DHT22;70059;42.702;23.312;2024-03-08T13:52:20;21.80;22.30
80695;DHT22;70059;42.702;23.312;2024-03-08T13:54:52;21.20;22.90
80695;DHT22;70059;42.702;23.312;2024-03-08T13:57:18;20.70;23.70
80695;DHT22;70059;42.702;23.312;2024-03-08T13:59:44;20.20;24.60
80695;DHT22;70059;42.702;23.312;2024-03-08T14:02:09;19.60;25.50
80695;DHT22;70059;42.702;23.312;2024-03-08T14:04:38;19.20;26.10
80695;DHT22;70059;42.702;23.312;2024-03-08T14:07:07;18.80;26.50
80695;DHT22;70059;42.702;23.312;2024-03-08T14:09:34;18.20;27.60
80695;DHT22;70059;42.702;23.312;2024-03-08T14:12:06;18.00;27.60
80695;DHT22;70059;42.702;23.312;2024-03-08T14:14:33;17.60;28.60
80695;DHT22;70059;42.702;23.312;2024-03-08T14:17:06;17.30;28.70
80695;DHT22;70059;42.702;23.312;2024-03-08T14:19:32;17.00;28.70
80695;DHT22;70059;42.702;23.312;2024-03-08T14:22:02;16.70;29.20
80695;DHT22;70059;42.702;23.312;2024-03-08T14:24:30;16.40;29.70
80695;DHT22;70059;42.702;23.312;2024-03-08T14:26:58;16.10;29.70
80695;DHT22;70059;42.702;23.312;2024-03-08T14:29:25;15.60;30.80
80695;DHT22;70059;42.702;23.312;2024-03-08T14:31:55;15.40;32.20
80695;DHT22;70059;42.702;23.312;2024-03-08T14:34:27;14.90;32.50
80695;DHT22;70059;42.702;23.312;2024-03-08T14:36:55;14.80;33.80
80695;DHT22;70059;42.702;23.312;2024-03-08T14:39:21;14.60;35.00
80695;DHT22;70059;42.702;23.312;2024-03-08T14:41:52;14.20;35.70
80695;DHT22;70059;42.702;23.312;2024-03-08T14:44:22;14.20;36.60
80695;DHT22;70059;42.702;23.312;2024-03-08T14:46:57;14.20;36.30
80695;DHT22;70059;42.702;23.312;2024-03-08T14:49:25;14.00;37.00
80695;DHT22;70059;42.702;23.312;2024-03-08T14:51:55;13.90;37.70
80695;DHT22;70059;42.702;23.312;2024-03-08T14:54:23;13.80;39.00
80695;DHT22;70059;42.702;23.312;2024-03-08T14:56:49;13.70;38.40
80695;DHT22;70059;42.702;23.312;2024-03-08T14:59:17;13.50;38.30
80695;DHT22;70059;42.702;23.312;2024-03-08T15:01:45;13.50;39.00
80695;DHT22;70059;42.702;23.312;2024-03-08T15:04:11;13.50;38.80
80695;DHT22;70059;42.702;23.312;2024-03-08T15:06:44;13.40;39.00
80695;DHT22;70059;42.702;23.312;2024-03-08T15:09:11;13.60;39.60
80695;DHT22;70059;42.702;23.312;2024-03-08T15:11:40;13.60;39.10
80695;DHT22;70059;42.702;23.312;2024-03-08T15:14:09;13.50;38.60
80695;DHT22;70059;42.702;23.312;2024-03-08T15:16:43;13.60;39.30
80695;DHT22;70059;42.702;23.312;2024-03-08T15:19:09;13.40;39.10
80695;DHT22;70059;42.702;23.312;2024-03-08T15:21:38;13.10;39.50
80695;DHT22;70059;42.702;23.312;2024-03-08T15:24:11;13.10;40.50
80695;DHT22;70059;42.702;23.312;2024-03-08T15:26:43;12.70;41.60
80695;DHT22;70059;42.702;23.312;2024-03-08T15:29:15;12.50;41.10
80695;DHT22;70059;42.702;23.312;2024-03-08T15:31:47;12.10;42.10
80695;DHT22;70059;42.702;23.312;2024-03-08T15:34:15;11.90;42.80
80695;DHT22;70059;42.702;23.312;2024-03-08T15:36:45;11.60;42.90
80695;DHT22;70059;42.702;23.312;2024-03-08T15:39:13;11.60;43.90
80695;DHT22;70059;42.702;23.312;2024-03-08T15:41:42;11.70;44.00
80695;DHT22;70059;42.702;23.312;2024-03-08T15:44:12;11.80;43.50
80695;DHT22;70059;42.702;23.312;2024-03-08T15:46:42;11.70;43.80
80695;DHT22;70059;42.702;23.312;2024-03-08T15:49:12;11.50;44.10
80695;DHT22;70059;42.702;23.312;2024-03-08T15:51:41;11.20;44.10
80695;DHT22;70059;42.702;23.312;2024-03-08T15:54:07;11.00;45.30
80695;DHT22;70059;42.702;23.312;2024-03-08T15:56:33;11.00;45.40
80695;DHT22;70059;42.702;23.312;2024-03-08T15:59:00;11.20;45.30
80695;DHT22;70059;42.702;23.312;2024-03-08T16:01:33;11.00;45.80
80695;DHT22;70059;42.702;23.312;2024-03-08T16:03:59;10.90;46.40
80695;DHT22;70059;42.702;23.312;2024-03-08T16:06:25;10.60;46.30
80695;DHT22;70059;42.702;23.312;2024-03-08T16:08:51;10.50;46.50
80695;DHT22;70059;42.702;23.312;2024-03-08T16:11:17;10.60;47.50
80695;DHT22;70059;42.702;23.312;2024-03-08T16:13:44;10.50;47.50
80695;DHT22;70059;42.702;23.312;2024-03-08T16:16:11;10.30;48.30
80695;DHT22;70059;42.702;23.312;2024-03-08T16:18:37;10.40;47.50
80695;DHT22;70059;42.702;23.312;2024-03-08T16:21:03;10.20;47.30
80695;DHT22;70059;42.702;23.312;2024-03-08T16:23:32;10.00;47.90
80695;DHT22;70059;42.702;23.312;2024-03-08T16:25:58;10.00;48.60
80695;DHT22;70059;42.702;23.312;2024-03-08T16:28:24;9.90;49.50
80695;DHT22;70059;42.702;23.312;2024-03-08T16:31:04;9.90;49.20
80695;DHT22;70059;42.702;23.312;2024-03-08T16:33:30;9.80;50.50
80695;DHT22;70059;42.702;23.312;2024-03-08T16:35:56;9.80;50.40
80695;DHT22;70059;42.702;23.312;2024-03-08T16:38:23;9.70;49.60
80695;DHT22;70059;42.702;23.312;2024-03-08T16:40:50;9.60;50.20
80695;DHT22;70059;42.702;23.312;2024-03-08T16:43:20;9.60;50.60
80695;DHT22;70059;42.702;23.312;2024-03-08T16:45:49;9.60;50.30
80695;DHT22;70059;42.702;23.312;2024-03-08T16:48:16;9.50;50.80
80695;DHT22;70059;42.702;23.312;2024-03-08T16:50:42;9.50;51.00